Time;durP1;ratioP1;P1;durP2;ratioP2;P2;SDS_P1;SDS_P2;PMS_P1;PMS_P2;Temp;Humidity;BMP_temperature;BMP_pressure;BME280_temperature;BME280_humidity;BME280_pressure;Samples;Min_cycle;Max_cycle;Signal;HPM_P1;HPM_P2
2023/05/06 00:01:45;;;;;;;28.63;23.35;;;10.30;99.90;;;;;;5052819;28;20067;-75
2023/05/06 00:04:14;;;;;;;28.50;23.15;;;10.30;99.90;;;;;;5069134;28;20061;-77
2023/05/06 00:06:42;;;;;;;27.23;23.45;;;10.10;99.90;;;;;;5054957;28;20053;-77
2023/05/06 00:09:10;;;;;;;26.75;23.85;;;10.00;99.90;;;;;;5052609;28;20048;-75
2023/05/06 00:11:37;;;;;;;27.35;23.40;;;10.10;99.90;;;;;;5053954;28;20041;-75
2023/05/06 00:14:06;;;;;;;28.80;24.02;;;10.10;99.90;;;;;;5067625;28;20041;-77
2023/05/06 00:16:34;;;;;;;31.38;24.13;;;10.10;99.90;;;;;;5052034;28;20448;-76
2023/05/06 00:19:01;;;;;;;31.58;23.75;;;10.00;99.90;;;;;;5055728;28;20040;-76
2023/05/06 00:21:29;;;;;;;28.10;25.20;;;10.00;99.90;;;;;;5057173;28;20642;-75
2023/05/06 00:23:56;;;;;;;29.30;26.10;;;9.90;99.90;;;;;;5053555;28;20033;-75
2023/05/06 00:26:23;;;;;;;29.35;25.65;;;9.90;99.90;;;;;;5062400;28;20053;-75
2023/05/06 00:28:51;;;;;;;26.77;23.88;;;9.90;99.90;;;;;;5066420;28;20061;-74
2023/05/06 00:31:20;;;;;;;31.35;24.65;;;9.80;99.90;;;;;;5068462;28;20056;-75
2023/05/06 00:33:47;;;;;;;26.30;22.38;;;9.80;99.90;;;;;;5068269;28;20037;-74
2023/05/06 00:36:15;;;;;;;29.25;23.15;;;9.80;99.90;;;;;;5066705;28;20497;-74
2023/05/06 00:38:42;;;;;;;27.30;24.10;;;9.70;99.90;;;;;;5062049;28;20049;-75
2023/05/06 00:41:09;;;;;;;27.35;23.70;;;9.70;99.90;;;;;;5066380;28;20111;-74
2023/05/06 00:43:37;;;;;;;30.98;22.17;;;9.70;99.90;;;;;;5066557;28;20117;-75
2023/05/06 00:46:11;;;;;;;27.73;23.52;;;9.70;99.90;;;;;;5062207;28;20041;-74
2023/05/06 00:48:40;;;;;;;30.77;24.30;;;9.60;99.90;;;;;;5052634;28;20386;-75
2023/05/06 00:51:08;;;;;;;27.20;22.90;;;9.60;99.90;;;;;;5048390;28;20445;-76
2023/05/06 00:53:36;;;;;;;27.98;23.73;;;9.50;99.90;;;;;;5059057;28;20044;-74
2023/05/06 00:56:04;;;;;;;24.88;22.17;;;9.60;99.90;;;;;;5054128;28;20059;-75
2023/05/06 00:58:32;;;;;;;28.10;23.02;;;9.60;99.90;;;;;;5050486;28;20124;-75
2023/05/06 01:01:00;;;;;;;25.77;21.83;;;9.60;99.90;;;;;;5048523;28;20063;-75
2023/05/06 01:03:27;;;;;;;26.05;22.25;;;9.60;99.90;;;;;;5050742;28;20455;-75
2023/05/06 01:06:07;;;;;;;28.10;22.80;;;9.60;99.90;;;;;;5050577;28;20041;-77
2023/05/06 01:08:42;;;;;;;28.40;22.38;;;9.60;99.90;;;;;;5051119;28;20127;-74
2023/05/06 01:11:16;;;;;;;31.52;23.10;;;9.50;99.90;;;;;;5050514;28;20049;-74
2023/05/06 01:13:50;;;;;;;26.73;23.73;;;9.50;99.90;;;;;;5050437;28;20048;-74
2023/05/06 01:16:23;;;;;;;27.02;23.42;;;9.50;99.90;;;;;;5050414;28;20040;-74
2023/05/06 01:18:54;;;;;;;28.13;24.75;;;9.40;99.90;;;;;;5047295;28;20037;-75
2023/05/06 01:21:33;;;;;;;26.88;23.98;;;9.40;99.90;;;;;;5048684;28;20043;-74
2023/05/06 01:24:02;;;;;;;25.80;23.10;;;9.30;99.90;;;;;;5047891;28;20044;-75
2023/05/06 01:26:29;;;;;;;30.77;24.60;;;9.20;99.90;;;;;;5053747;28;20420;-75
2023/05/06 01:28:59;;;;;;;30.90;24.33;;;9.20;99.90;;;;;;5054531;28;20493;-75
2023/05/06 01:31:36;;;;;;;32.22;25.63;;;9.20;99.90;;;;;;5058066;28;20055;-75
2023/05/06 01:34:11;;;;;;;31.10;24.70;;;9.20;99.90;;;;;;5075859;28;20060;-75
2023/05/06 01:36:46;;;;;;;30.70;24.85;;;9.20;99.90;;;;;;5053741;28;20037;-75
2023/05/06 01:39:17;;;;;;;29.30;23.38;;;9.10;99.90;;;;;;5070570;28;20044;-75
2023/05/06 01:41:48;;;;;;;26.25;22.10;;;9.00;99.90;;;;;;5074101;28;20143;-77
2023/05/06 01:44:17;;;;;;;27.00;22.25;;;9.00;99.90;;;;;;5058258;28;20037;-75
2023/05/06 01:46:46;;;;;;;25.92;23.23;;;9.00;99.90;;;;;;5055528;28;20048;-75
2023/05/06 01:49:15;;;;;;;28.52;24.55;;;9.00;99.90;;;;;;5074521;28;20051;-75
2023/05/06 01:51:47;;;;;;;26.00;23.25;;;9.00;99.90;;;;;;5050864;28;20044;-75
2023/05/06 01:54:17;;;;;;;26.23;23.33;;;9.00;99.90;;;;;;5064551;28;20044;-75
2023/05/06 01:56:45;;;;;;;26.55;23.38;;;9.10;99.90;;;;;;5048544;28;20067;-76
2023/05/06 01:59:13;;;;;;;26.08;23.25;;;9.00;99.90;;;;;;5064431;28;20041;-74
2023/05/06 02:01:40;;;;;;;26.42;23.65;;;8.90;99.90;;;;;;5049033;28;20300;-75
2023/05/06 02:04:08;;;;;;;26.98;23.50;;;8.90;99.90;;;;;;5049376;28;20040;-75
2023/05/06 02:06:36;;;;;;;25.33;22.70;;;8.80;99.90;;;;;;5048346;28;20041;-76
2023/05/06 02:09:04;;;;;;;24.88;22.20;;;8.80;99.90;;;;;;5046610;28;20231;-75
2023/05/06 02:11:36;;;;;;;25.75;23.05;;;8.80;99.90;;;;;;5046941;28;20606;-75
2023/05/06 02:14:06;;;;;;;24.42;21.95;;;8.90;99.90;;;;;;5046535;28;20064;-75
2023/05/06 02:16:35;;;;;;;24.35;21.73;;;8.90;99.90;;;;;;5046234;28;20045;-76
2023/05/06 02:19:03;;;;;;;23.73;21.23;;;8.90;99.90;;;;;;5047776;28;20041;-76
2023/05/06 02:21:30;;;;;;;26.85;21.98;;;8.90;99.90;;;;;;5046990;28;20072;-76
2023/05/06 02:23:59;;;;;;;23.65;21.10;;;8.80;99.90;;;;;;5053742;28;20041;-77
2023/05/06 02:26:26;;;;;;;24.63;22.00;;;8.80;99.90;;;;;;5069893;23;20130;-75
2023/05/06 02:28:55;;;;;;;26.50;23.73;;;8.80;99.90;;;;;;5062401;28;20044;-75
2023/05/06 02:31:23;;;;;;;26.23;23.17;;;8.70;99.90;;;;;;5045464;28;20516;-76
2023/05/06 02:33:50;;;;;;;27.33;24.60;;;8.60;99.90;;;;;;5045510;28;20043;-76
2023/05/06 02:36:17;;;;;;;28.83;25.17;;;8.60;99.90;;;;;;5061441;28;20516;-76
2023/05/06 02:38:45;;;;;;;23.90;21.40;;;8.70;99.90;;;;;;5045742;28;20513;-75
2023/05/06 02:41:12;;;;;;;26.42;22.92;;;8.60;99.90;;;;;;5062829;28;20123;-76
2023/05/06 02:43:40;;;;;;;27.00;22.45;;;8.50;99.90;;;;;;5045485;28;20239;-76
2023/05/06 02:46:08;;;;;;;25.60;22.27;;;8.50;99.90;;;;;;5047841;28;20041;-76
2023/05/06 02:48:36;;;;;;;24.30;21.70;;;8.50;99.90;;;;;;5063161;28;20045;-76
2023/05/06 02:51:06;;;;;;;25.50;22.50;;;8.50;99.90;;;;;;5063317;28;20048;-76
2023/05/06 02:53:33;;;;;;;25.40;22.67;;;8.50;99.90;;;;;;5046226;28;20052;-76
2023/05/06 02:56:00;;;;;;;25.70;22.17;;;8.50;99.90;;;;;;5046112;28;20124;-76
2023/05/06 02:58:28;;;;;;;25.98;22.42;;;8.50;99.90;;;;;;5046869;28;20136;-75
2023/05/06 03:00:55;;;;;;;24.88;21.77;;;8.50;99.90;;;;;;5046005;28;20069;-77
2023/05/06 03:03:24;;;;;;;27.25;22.58;;;8.50;99.90;;;;;;5044935;28;20076;-76
2023/05/06 03:05:52;;;;;;;24.45;21.85;;;8.50;99.90;;;;;;5046133;28;20520;-75
2023/05/06 03:08:19;;;;;;;24.52;21.55;;;8.40;99.90;;;;;;5046788;28;20474;-77
2023/05/06 03:10:47;;;;;;;25.23;22.52;;;8.40;99.90;;;;;;5048623;28;20060;-76
2023/05/06 03:13:17;;;;;;;24.48;20.65;;;8.40;99.90;;;;;;5048438;28;20041;-75
2023/05/06 03:15:45;;;;;;;26.48;23.55;;;8.30;99.90;;;;;;5079456;28;20056;-76
2023/05/06 03:18:12;;;;;;;26.27;22.38;;;8.30;99.90;;;;;;5061160;28;20087;-76
2023/05/06 03:20:42;;;;;;;30.15;25.58;;;8.20;99.90;;;;;;5065448;28;20536;-76
2023/05/06 03:23:09;;;;;;;31.10;27.90;;;8.20;99.90;;;;;;5050183;28;20044;-74
2023/05/06 03:25:37;;;;;;;29.83;26.75;;;8.20;99.90;;;;;;5049447;28;20124;-76
2023/05/06 03:28:05;;;;;;;28.52;25.40;;;8.20;99.90;;;;;;5048294;28;20557;-76
2023/05/06 03:30:34;;;;;;;28.08;25.05;;;8.20;99.90;;;;;;5048547;28;20459;-75
2023/05/06 03:33:05;;;;;;;29.38;23.67;;;8.20;99.90;;;;;;5049219;28;20045;-76
2023/05/06 03:35:33;;;;;;;26.30;23.48;;;8.10;99.90;;;;;;5049646;28;20096;-76
2023/05/06 03:38:03;;;;;;;25.35;22.67;;;8.20;99.90;;;;;;5048536;28;20610;-76
2023/05/06 03:40:39;;;;;;;26.02;22.00;;;8.30;99.90;;;;;;5049018;28;20139;-75
2023/05/06 03:43:06;;;;;;;27.58;23.70;;;8.40;99.90;;;;;;5049287;28;20696;-76
2023/05/06 03:45:34;;;;;;;29.85;24.75;;;8.40;99.90;;;;;;5049846;28;20432;-76
2023/05/06 03:48:04;;;;;;;29.65;25.02;;;8.40;99.90;;;;;;5048446;28;20140;-75
2023/05/06 03:50:33;;;;;;;28.10;23.67;;;8.40;99.90;;;;;;5048649;28;20055;-76
2023/05/06 03:53:02;;;;;;;27.33;24.40;;;8.40;99.90;;;;;;5050003;28;20044;-76
2023/05/06 03:55:32;;;;;;;30.08;23.55;;;8.40;99.90;;;;;;5048018;28;20406;-74
2023/05/06 03:58:01;;;;;;;25.20;21.95;;;8.50;99.90;;;;;;5064409;28;20047;-74
2023/05/06 04:00:28;;;;;;;24.90;22.23;;;8.60;99.90;;;;;;5049146;28;20041;-76
2023/05/06 04:02:56;;;;;;;25.95;20.80;;;8.80;99.90;;;;;;5064355;28;20059;-76
2023/05/06 04:05:30;;;;;;;21.77;18.70;;;9.30;99.90;;;;;;5065301;28;20045;-75
2023/05/06 04:07:58;;;;;;;20.48;18.25;;;10.00;99.90;;;;;;5064102;28;20060;-76
2023/05/06 04:10:28;;;;;;;22.38;17.98;;;10.60;99.90;;;;;;5046957;28;20040;-75
2023/05/06 04:13:01;;;;;;;20.77;16.73;;;11.30;99.90;;;;;;5064544;28;20386;-75
2023/05/06 04:15:36;;;;;;;21.60;16.65;;;12.10;99.90;;;;;;5048150;28;20773;-75
2023/05/06 04:18:07;;;;;;;18.88;15.80;;;12.90;99.90;;;;;;5063568;28;20091;-76
2023/05/06 04:20:37;;;;;;;17.52;15.20;;;13.30;99.90;;;;;;5047360;28;20045;-76
2023/05/06 04:23:05;;;;;;;16.23;14.52;;;13.40;99.90;;;;;;5047174;28;20064;-75
2023/05/06 04:25:34;;;;;;;17.00;14.95;;;13.70;99.90;;;;;;5048517;28;20269;-75
2023/05/06 04:28:03;;;;;;;20.70;14.38;;;13.70;99.90;;;;;;5063600;28;20072;-74
2023/05/06 04:30:30;;;;;;;17.25;14.55;;;14.00;99.90;;;;;;5046003;28;20075;-75
2023/05/06 04:32:58;;;;;;;17.63;15.50;;;14.80;99.90;;;;;;5049371;28;20125;-74
2023/05/06 04:35:26;;;;;;;20.33;15.05;;;15.20;99.90;;;;;;5064910;28;20091;-74
2023/05/06 04:37:57;;;;;;;19.00;16.20;;;15.30;99.90;;;;;;5063528;28;20480;-75
2023/05/06 04:40:30;;;;;;;18.73;15.90;;;14.50;99.90;;;;;;5063774;28;20051;-75
2023/05/06 04:42:59;;;;;;;21.08;17.23;;;13.80;99.90;;;;;;5047618;28;20041;-75
2023/05/06 04:45:31;;;;;;;23.95;18.92;;;13.00;99.90;;;;;;5063408;28;20063;-75
2023/05/06 04:47:59;;;;;;;23.83;20.10;;;12.40;99.90;;;;;;5047438;28;20080;-74
2023/05/06 04:50:26;;;;;;;24.23;17.95;;;12.30;99.90;;;;;;5047005;28;20053;-76
2023/05/06 04:52:54;;;;;;;20.05;17.73;;;12.30;99.90;;;;;;5047121;28;20095;-74
2023/05/06 04:55:22;;;;;;;23.00;17.67;;;12.20;99.90;;;;;;5046836;28;20063;-75
2023/05/06 04:57:53;;;;;;;18.73;16.70;;;12.20;99.90;;;;;;5048404;28;20520;-76
2023/05/06 05:00:25;;;;;;;22.10;17.30;;;12.40;99.90;;;;;;5049109;28;20037;-75
2023/05/06 05:02:52;;;;;;;21.20;18.25;;;12.60;99.90;;;;;;5065932;28;20041;-75
2023/05/06 05:05:20;;;;;;;21.80;18.23;;;12.60;99.90;;;;;;5049173;28;20117;-76
2023/05/06 05:07:51;;;;;;;21.55;18.48;;;12.60;99.90;;;;;;5047414;28;20106;-75
2023/05/06 05:10:19;;;;;;;20.42;18.23;;;12.50;99.90;;;;;;5063027;28;20447;-76
2023/05/06 05:12:49;;;;;;;21.77;17.48;;;12.70;99.90;;;;;;5048089;28;20043;-75
2023/05/06 05:15:17;;;;;;;23.05;18.13;;;13.00;99.90;;;;;;5046409;28;20060;-74
2023/05/06 05:17:47;;;;;;;19.40;15.88;;;13.70;99.90;;;;;;5046475;28;20041;-75
2023/05/06 05:20:15;;;;;;;20.77;15.93;;;14.90;99.90;;;;;;5046701;28;20552;-74
2023/05/06 05:22:42;;;;;;;20.70;15.13;;;16.50;99.90;;;;;;5047001;28;20389;-75
2023/05/06 05:25:10;;;;;;;17.13;14.32;;;17.70;99.90;;;;;;5048822;28;20438;-75
2023/05/06 05:27:38;;;;;;;17.35;13.25;;;18.70;99.90;;;;;;5046575;28;20504;-75
2023/05/06 05:30:07;;;;;;;19.05;14.13;;;19.30;96.00;;;;;;5048521;28;20043;-73
2023/05/06 05:32:37;;;;;;;14.98;13.32;;;19.80;92.50;;;;;;5045923;28;20076;-75
2023/05/06 05:35:09;;;;;;;14.35;12.85;;;19.90;90.40;;;;;;5063962;28;20501;-75
2023/05/06 05:37:37;;;;;;;21.23;14.35;;;20.20;87.80;;;;;;5046445;28;20045;-75
2023/05/06 05:40:07;;;;;;;18.10;13.15;;;20.00;85.00;;;;;;5047083;28;20044;-75
2023/05/06 05:42:36;;;;;;;18.77;14.18;;;19.80;84.50;;;;;;5045631;28;20033;-76
2023/05/06 05:45:10;;;;;;;16.95;13.93;;;19.60;85.30;;;;;;5046549;28;20040;-74
2023/05/06 05:47:38;;;;;;;21.20;14.82;;;19.30;87.80;;;;;;5045061;28;20049;-75
2023/05/06 05:50:09;;;;;;;16.92;15.13;;;19.20;89.40;;;;;;5064295;28;20049;-75
2023/05/06 05:52:38;;;;;;;18.67;14.73;;;19.00;90.50;;;;;;5046385;28;20260;-75
2023/05/06 05:55:06;;;;;;;16.20;14.43;;;18.80;91.40;;;;;;5047804;28;20047;-75
2023/05/06 05:57:35;;;;;;;20.20;15.40;;;18.70;92.20;;;;;;5046561;28;20153;-76
2023/05/06 06:00:03;;;;;;;18.75;14.30;;;18.50;93.90;;;;;;5046575;28;20048;-75
2023/05/06 06:02:34;;;;;;;15.48;13.82;;;18.30;94.80;;;;;;5048030;28;20041;-76
2023/05/06 06:05:02;;;;;;;25.13;15.90;;;18.30;97.00;;;;;;5046374;28;20127;-75
2023/05/06 06:07:32;;;;;;;17.20;15.02;;;18.10;99.90;;;;;;5062889;28;20124;-76
2023/05/06 06:09:59;;;;;;;16.92;15.20;;;18.20;99.90;;;;;;5062768;28;20033;-74
2023/05/06 06:12:27;;;;;;;18.30;15.32;;;18.30;99.90;;;;;;5046028;28;20033;-75
2023/05/06 06:14:55;;;;;;;18.35;15.95;;;18.60;99.90;;;;;;5046329;28;20057;-76
2023/05/06 06:17:24;;;;;;;23.58;15.55;;;18.80;99.90;;;;;;5063864;28;20052;-74
2023/05/06 06:19:56;;;;;;;26.42;17.08;;;19.00;99.90;;;;;;5046776;28;20481;-74
2023/05/06 06:22:24;;;;;;;17.35;14.43;;;19.20;98.50;;;;;;5046502;28;20053;-75
2023/05/06 06:24:53;;;;;;;19.85;15.80;;;19.20;97.80;;;;;;5062359;28;20045;-75
2023/05/06 06:27:21;;;;;;;20.30;14.88;;;19.30;98.30;;;;;;5047935;28;20041;-75
2023/05/06 06:29:49;;;;;;;17.77;14.60;;;19.60;96.90;;;;;;5045799;28;20072;-76
2023/05/06 06:32:16;;;;;;;16.45;13.43;;;19.80;94.60;;;;;;5046805;28;20132;-75
2023/05/06 06:34:44;;;;;;;29.27;16.95;;;20.00;92.40;;;;;;5046115;28;20037;-75
2023/05/06 06:37:12;;;;;;;21.02;15.32;;;20.10;90.90;;;;;;5045207;28;20045;-74
2023/05/06 06:39:39;;;;;;;27.88;16.20;;;20.10;90.40;;;;;;5045624;28;20029;-74
2023/05/06 06:42:08;;;;;;;25.48;15.40;;;20.10;89.10;;;;;;5045326;28;20045;-76
2023/05/06 06:44:48;;;;;;;17.55;13.93;;;20.30;88.80;;;;;;5047753;28;20571;-75
2023/05/06 06:47:15;;;;;;;17.40;13.15;;;20.40;85.50;;;;;;5050177;28;20044;-75
2023/05/06 06:49:43;;;;;;;15.95;12.93;;;20.30;85.40;;;;;;5050318;28;20563;-75
2023/05/06 06:52:10;;;;;;;12.98;11.68;;;20.50;84.70;;;;;;5049884;28;20052;-74
2023/05/06 06:54:38;;;;;;;17.60;13.13;;;20.60;84.30;;;;;;5049874;28;20052;-75
2023/05/06 06:57:08;;;;;;;19.67;12.00;;;20.70;84.10;;;;;;5048549;28;20440;-74
2023/05/06 06:59:35;;;;;;;17.77;12.90;;;20.80;83.80;;;;;;5053764;28;20037;-75
2023/05/06 07:02:02;;;;;;;17.35;12.55;;;20.90;82.60;;;;;;5054183;28;20091;-75
2023/05/06 07:04:30;;;;;;;13.82;12.30;;;21.10;81.30;;;;;;5072855;28;20065;-75
2023/05/06 07:06:57;;;;;;;12.45;11.25;;;21.20;80.50;;;;;;5048538;28;20048;-75
2023/05/06 07:09:25;;;;;;;12.95;10.95;;;21.30;80.10;;;;;;5051756;28;20044;-77
2023/05/06 07:11:52;;;;;;;20.38;12.93;;;21.30;79.90;;;;;;5050834;28;20363;-75
2023/05/06 07:14:21;;;;;;;14.48;10.50;;;21.40;79.60;;;;;;5051553;28;20039;-74
2023/05/06 07:16:48;;;;;;;15.40;11.05;;;21.30;79.20;;;;;;5050464;28;20072;-75
2023/05/06 07:19:16;;;;;;;15.48;10.63;;;21.20;79.20;;;;;;5049542;28;20090;-74
2023/05/06 07:21:43;;;;;;;11.45;9.50;;;21.10;79.50;;;;;;5049869;28;20037;-75
2023/05/06 07:24:10;;;;;;;14.65;9.52;;;21.30;79.40;;;;;;5050864;28;20037;-74
2023/05/06 07:26:38;;;;;;;10.65;9.35;;;21.40;77.90;;;;;;5049696;28;20053;-74
2023/05/06 07:29:05;;;;;;;11.77;9.57;;;21.70;77.50;;;;;;5049940;28;20051;-73
2023/05/06 07:31:34;;;;;;;13.60;9.52;;;22.00;76.10;;;;;;5050039;28;20045;-76
2023/05/06 07:34:02;;;;;;;13.38;9.35;;;22.30;75.00;;;;;;5050194;28;20045;-72
2023/05/06 07:36:34;;;;;;;10.95;8.43;;;22.40;74.00;;;;;;5048921;28;20041;-73
2023/05/06 07:39:01;;;;;;;8.30;7.50;;;22.40;72.60;;;;;;5049297;28;20095;-79
2023/05/06 07:41:28;;;;;;;9.27;6.90;;;22.70;69.40;;;;;;5050639;28;20041;-77
2023/05/06 07:43:56;;;;;;;16.40;5.63;;;22.80;68.60;;;;;;5050602;28;20493;-82
2023/05/06 07:46:24;;;;;;;8.70;6.80;;;22.50;61.30;;;;;;5050319;28;20098;-76
2023/05/06 07:48:52;;;;;;;13.15;9.32;;;22.50;58.10;;;;;;5049994;28;20470;-77
2023/05/06 07:51:20;;;;;;;15.40;9.82;;;22.60;56.30;;;;;;5049481;28;20037;-78
2023/05/06 07:53:47;;;;;;;40.28;27.55;;;22.60;55.30;;;;;;5050448;28;20044;-76
2023/05/06 07:56:15;;;;;;;7.60;5.50;;;22.60;55.00;;;;;;5049491;28;20048;-75
2023/05/06 07:58:42;;;;;;;8.80;5.10;;;22.80;55.60;;;;;;5050057;28;20712;-77
2023/05/06 08:01:10;;;;;;;9.18;4.65;;;22.90;54.80;;;;;;5048278;28;20048;-75
2023/05/06 08:03:37;;;;;;;8.85;5.63;;;22.90;52.30;;;;;;5048370;28;20040;-74
2023/05/06 08:06:07;;;;;;;5.75;4.43;;;23.10;51.40;;;;;;5047733;28;20117;-73
2023/05/06 08:08:34;;;;;;;7.40;5.22;;;23.00;52.30;;;;;;5050264;28;20116;-73
2023/05/06 08:11:02;;;;;;;5.13;3.65;;;23.10;49.60;;;;;;5048933;28;20037;-74
2023/05/06 08:13:30;;;;;;;6.35;4.72;;;23.30;47.00;;;;;;5049641;28;20037;-73
2023/05/06 08:15:57;;;;;;;4.65;3.70;;;23.40;47.40;;;;;;5048735;28;20099;-75
2023/05/06 08:18:25;;;;;;;7.07;5.28;;;23.20;46.70;;;;;;5049776;28;20041;-74
2023/05/06 08:20:52;;;;;;;4.72;4.13;;;23.30;45.30;;;;;;5050026;28;20044;-74
2023/05/06 08:23:21;;;;;;;7.18;4.85;;;23.30;45.30;;;;;;5049071;28;20622;-73
2023/05/06 08:25:49;;;;;;;5.72;3.10;;;23.40;44.90;;;;;;5048891;28;20112;-74
2023/05/06 08:28:17;;;;;;;5.53;3.20;;;23.40;44.10;;;;;;5048837;28;20048;-74
2023/05/06 08:30:47;;;;;;;7.65;4.57;;;23.30;42.80;;;;;;5049001;28;20516;-75
2023/05/06 08:33:14;;;;;;;5.13;3.63;;;23.20;43.10;;;;;;5048679;28;20067;-74
2023/05/06 08:35:42;;;;;;;6.35;3.20;;;23.30;44.30;;;;;;5048911;28;20098;-74
2023/05/06 08:38:09;;;;;;;6.43;4.47;;;23.40;44.20;;;;;;5048912;28;20063;-74
2023/05/06 08:40:42;;;;;;;4.80;3.38;;;23.30;43.00;;;;;;5048246;28;20485;-75
2023/05/06 08:43:13;;;;;;;4.88;3.75;;;23.40;41.90;;;;;;5048493;28;20149;-75
2023/05/06 08:45:41;;;;;;;4.78;3.15;;;23.50;42.40;;;;;;5048129;28;20603;-73
2023/05/06 08:48:09;;;;;;;6.80;3.70;;;23.60;42.40;;;;;;5049361;28;20060;-73
2023/05/06 08:50:41;;;;;;;4.10;3.10;;;23.60;42.50;;;;;;5049796;28;20037;-74
2023/05/06 08:53:11;;;;;;;8.48;5.22;;;23.60;41.60;;;;;;5049273;28;20435;-74
2023/05/06 08:55:41;;;;;;;5.07;3.50;;;23.40;41.30;;;;;;5047720;28;20079;-74
2023/05/06 08:58:11;;;;;;;6.97;3.22;;;23.30;41.80;;;;;;5048415;28;20037;-75
2023/05/06 09:00:39;;;;;;;4.10;3.00;;;23.40;42.00;;;;;;5047270;28;20082;-76
2023/05/06 09:03:06;;;;;;;5.07;3.75;;;23.70;41.70;;;;;;5047973;28;20156;-76
2023/05/06 09:05:34;;;;;;;7.47;5.28;;;23.90;42.20;;;;;;5047815;28;20047;-75
2023/05/06 09:08:01;;;;;;;6.15;4.20;;;23.90;43.20;;;;;;5047763;28;20143;-74
2023/05/06 09:10:32;;;;;;;9.18;5.70;;;23.90;43.80;;;;;;5047815;28;20501;-75
2023/05/06 09:13:02;;;;;;;5.13;4.00;;;24.10;44.60;;;;;;5048454;28;20132;-73
2023/05/06 09:15:40;;;;;;;5.95;3.97;;;24.10;44.00;;;;;;5047005;28;20049;-74
2023/05/06 09:18:07;;;;;;;5.30;3.83;;;24.30;43.60;;;;;;5046937;28;20052;-72
2023/05/06 09:20:35;;;;;;;15.32;12.27;;;24.40;43.90;;;;;;5046699;28;20045;-74
2023/05/06 09:23:03;;;;;;;6.65;5.30;;;24.50;44.40;;;;;;5046131;28;20059;-73
2023/05/06 09:25:30;;;;;;;5.93;4.07;;;24.30;44.50;;;;;;5047712;28;20041;-75
2023/05/06 09:28:06;;;;;;;4.03;3.47;;;24.30;43.90;;;;;;5047030;28;20490;-74
2023/05/06 09:30:33;;;;;;;7.38;3.67;;;24.30;44.00;;;;;;5046564;28;20500;-76
2023/05/06 09:33:03;;;;;;;7.25;4.40;;;24.40;43.20;;;;;;5063607;28;20048;-77
2023/05/06 09:35:37;;;;;;;4.95;3.97;;;24.40;43.70;;;;;;5050594;28;20029;-73
2023/05/06 09:38:04;;;;;;;5.75;3.70;;;24.40;44.30;;;;;;5049682;28;20075;-74
2023/05/06 09:40:31;;;;;;;6.82;3.60;;;24.50;43.90;;;;;;5054605;28;20041;-75
2023/05/06 09:43:00;;;;;;;5.72;3.50;;;24.60;43.20;;;;;;5069420;28;20612;-75
2023/05/06 09:45:29;;;;;;;4.45;3.28;;;24.70;43.60;;;;;;5047659;28;20040;-75
2023/05/06 09:47:58;;;;;;;5.03;3.30;;;24.70;43.20;;;;;;5047778;28;20051;-74
2023/05/06 09:50:25;;;;;;;6.88;4.15;;;24.90;42.80;;;;;;5047887;28;20052;-74
2023/05/06 09:52:54;;;;;;;10.25;3.42;;;24.80;41.90;;;;;;5046169;28;20047;-75
2023/05/06 09:55:25;;;;;;;5.18;3.95;;;24.80;41.00;;;;;;5047445;28;20041;-75
2023/05/06 09:57:53;;;;;;;6.93;3.60;;;24.90;40.90;;;;;;5047325;28;20497;-73
2023/05/06 10:00:26;;;;;;;4.85;3.25;;;25.00;40.90;;;;;;5045844;28;20048;-74
2023/05/06 10:02:55;;;;;;;4.47;3.35;;;25.10;39.40;;;;;;5047575;28;20397;-73
2023/05/06 10:05:25;;;;;;;3.85;3.10;;;25.10;38.90;;;;;;5047544;28;20060;-75
2023/05/06 10:07:55;;;;;;;6.18;3.53;;;25.20;39.10;;;;;;5046472;28;20045;-74
2023/05/06 10:10:24;;;;;;;5.82;3.55;;;25.20;40.00;;;;;;5046134;28;20045;-74
2023/05/06 10:12:52;;;;;;;4.28;2.97;;;25.10;39.50;;;;;;5062246;28;20119;-74
2023/05/06 10:15:20;;;;;;;4.32;2.88;;;24.90;39.60;;;;;;5045169;28;20036;-74
2023/05/06 10:17:51;;;;;;;4.65;3.85;;;25.10;38.10;;;;;;5047337;28;20049;-75
2023/05/06 10:20:24;;;;;;;3.50;2.80;;;25.20;38.00;;;;;;5051680;28;20545;-75
2023/05/06 10:23:01;;;;;;;4.75;3.00;;;25.40;38.90;;;;;;5051517;28;20041;-75
2023/05/06 10:25:35;;;;;;;4.63;3.58;;;25.30;38.70;;;;;;5051973;28;20049;-74
2023/05/06 10:28:05;;;;;;;7.57;3.42;;;25.10;37.70;;;;;;5051235;28;20114;-75
2023/05/06 10:30:34;;;;;;;5.22;3.83;;;25.30;37.40;;;;;;5050885;28;20091;-75
2023/05/06 10:33:05;;;;;;;3.20;2.70;;;25.40;36.50;;;;;;5050926;28;20044;-75
2023/05/06 10:35:44;;;;;;;4.10;3.20;;;25.40;36.20;;;;;;5050258;28;20048;-73
2023/05/06 10:38:17;;;;;;;4.75;3.50;;;25.30;36.40;;;;;;5066207;28;20079;-74
2023/05/06 10:40:45;;;;;;;3.95;2.90;;;25.50;37.10;;;;;;5050990;28;20049;-73
2023/05/06 10:43:28;;;;;;;6.22;3.55;;;25.30;35.90;;;;;;5050820;28;20038;-76
2023/05/06 10:46:07;;;;;;;5.00;3.20;;;25.40;35.90;;;;;;5050902;28;20044;-75
2023/05/06 10:48:36;;;;;;;4.20;3.05;;;25.60;36.60;;;;;;5049398;28;20535;-75
2023/05/06 10:51:24;;;;;;;5.97;3.70;;;25.60;35.60;;;;;;5050225;28;20045;-75
2023/05/06 10:54:01;;;;;;;5.00;2.97;;;25.60;35.00;;;;;;5050677;28;20037;-75
2023/05/06 10:56:30;;;;;;;5.00;3.35;;;25.90;35.10;;;;;;5051636;28;20429;-75
2023/05/06 10:59:01;;;;;;;3.50;2.97;;;26.00;34.60;;;;;;5050830;28;20052;-75
2023/05/06 11:01:28;;;;;;;5.38;3.70;;;25.80;35.40;;;;;;5050097;28;20044;-74
2023/05/06 11:03:56;;;;;;;3.58;2.65;;;25.90;34.20;;;;;;5050872;28;20404;-77
2023/05/06 11:06:35;;;;;;;4.15;2.90;;;26.00;34.40;;;;;;5050846;28;20033;-74
2023/05/06 11:09:04;;;;;;;4.10;3.33;;;26.00;34.40;;;;;;5048482;28;20041;-75
2023/05/06 11:11:49;;;;;;;3.70;3.08;;;25.80;34.70;;;;;;5050199;28;20512;-73
2023/05/06 11:14:27;;;;;;;4.47;3.30;;;25.80;33.80;;;;;;5051315;28;20060;-75
2023/05/06 11:16:55;;;;;;;5.75;3.80;;;25.80;34.00;;;;;;5054623;28;20045;-75
2023/05/06 11:19:23;;;;;;;5.05;3.30;;;25.80;33.40;;;;;;5054798;28;20485;-74
2023/05/06 11:21:53;;;;;;;7.22;3.88;;;25.90;34.10;;;;;;5052738;28;20033;-75
2023/05/06 11:24:28;;;;;;;6.38;4.15;;;26.00;33.50;;;;;;5052865;28;20040;-74
2023/05/06 11:26:56;;;;;;;7.15;3.75;;;26.20;34.10;;;;;;5049877;28;20059;-74
2023/05/06 11:29:23;;;;;;;4.07;3.10;;;26.40;33.80;;;;;;5050416;28;20116;-75
2023/05/06 11:31:52;;;;;;;5.47;3.60;;;26.50;32.60;;;;;;5050726;28;20041;-73
2023/05/06 11:34:26;;;;;;;4.63;2.95;;;26.40;32.60;;;;;;5050812;28;20095;-75
2023/05/06 11:36:59;;;;;;;5.15;4.28;;;25.90;32.70;;;;;;5051310;28;20040;-75
2023/05/06 11:39:29;;;;;;;3.92;3.00;;;25.60;33.00;;;;;;5049821;28;20106;-75
2023/05/06 11:41:58;;;;;;;5.22;3.58;;;25.60;34.00;;;;;;5049604;28;20045;-74
2023/05/06 11:44:28;;;;;;;4.38;3.45;;;25.80;34.60;;;;;;5049486;28;20048;-74
2023/05/06 11:46:59;;;;;;;3.92;3.03;;;25.80;35.00;;;;;;5050582;28;20041;-75
2023/05/06 11:49:27;;;;;;;4.30;3.35;;;25.70;35.00;;;;;;5050393;28;20041;-74
2023/05/06 11:51:57;;;;;;;4.68;3.05;;;25.70;34.50;;;;;;5049447;28;20091;-75
2023/05/06 11:54:27;;;;;;;5.57;3.25;;;25.60;34.00;;;;;;5050076;28;20041;-73
2023/05/06 11:56:56;;;;;;;4.05;3.00;;;25.40;33.90;;;;;;5050750;28;20485;-76
2023/05/06 11:59:29;;;;;;;4.40;2.95;;;25.30;34.50;;;;;;5050360;28;20076;-75
2023/05/06 12:01:58;;;;;;;3.70;2.80;;;25.20;35.10;;;;;;5065129;28;20056;-75
2023/05/06 12:04:25;;;;;;;4.40;3.30;;;25.20;34.30;;;;;;5049817;28;20087;-74
2023/05/06 12:06:54;;;;;;;5.25;3.38;;;25.30;34.30;;;;;;5050345;28;20041;-76
2023/05/06 12:09:24;;;;;;;6.30;4.65;;;25.40;34.20;;;;;;5050065;28;20047;-74
2023/05/06 12:11:52;;;;;;;6.22;3.72;;;25.40;34.30;;;;;;5048590;28;20098;-75
2023/05/06 12:14:19;;;;;;;6.63;3.30;;;25.40;33.90;;;;;;5049932;28;20051;-75
2023/05/06 12:16:47;;;;;;;5.53;3.05;;;25.40;33.80;;;;;;5049270;28;20519;-74
2023/05/06 12:19:17;;;;;;;5.90;2.97;;;25.50;33.80;;;;;;5049430;28;20343;-73
2023/05/06 12:21:45;;;;;;;4.13;3.25;;;25.50;33.60;;;;;;5048989;28;20052;-75
2023/05/06 12:24:13;;;;;;;6.72;3.38;;;25.40;33.70;;;;;;5049445;28;20106;-76
2023/05/06 12:26:46;;;;;;;3.92;2.70;;;25.40;33.60;;;;;;5048174;28;20580;-76
2023/05/06 12:29:16;;;;;;;3.95;2.65;;;25.50;33.00;;;;;;5049577;28;20130;-75
2023/05/06 12:31:45;;;;;;;4.38;3.30;;;25.40;31.20;;;;;;5047303;28;20749;-74
2023/05/06 12:34:14;;;;;;;5.53;3.38;;;25.40;31.90;;;;;;5048668;28;20065;-75
2023/05/06 12:36:42;;;;;;;4.88;3.40;;;25.50;32.20;;;;;;5048151;28;20037;-74
2023/05/06 12:39:11;;;;;;;9.10;5.22;;;25.50;32.50;;;;;;5049124;28;20055;-74
2023/05/06 12:41:41;;;;;;;5.38;3.15;;;25.60;32.80;;;;;;5048973;28;20044;-75
2023/05/06 12:44:36;;;;;;;5.10;3.20;;;25.70;33.00;;;;;;5049238;28;20053;-74
2023/05/06 12:47:07;;;;;;;3.95;3.10;;;25.60;32.10;;;;;;5049146;28;20341;-74
2023/05/06 12:49:47;;;;;;;4.22;3.05;;;25.70;31.40;;;;;;5048558;28;20048;-75